Roskilde, Denmark
Current Conditions -  °F | °C
As of 1:20 PM on Sunday 23 Nov 2014 (Local Time) from EKRK Reporting Station
Light Rain Light Rain  
Wind Chill: 36°   Ceiling: 1500
Heat Index: 45°   Visibility: 3mi
Dew Point: 43°   Wind: 23mph
Humidity: 93%   Direction: 140°SE
Pressure: 30.18"   Gusts: NA
Location:  55.64°N, 12.08°E
Report Text: EKRK 231220Z 14020KT 5000 -RA SCT009 BKN015 07/06 Q1022
Loading
Personal Weather Stations






























Interactive Weather Map New forecast layout! Learn more

10-Day Weather Forecast

Advertisements
Track Severe Weather on mobile